createdAt,value
2023-03-14T00:01:27.809Z,97627.88
2023-03-14T00:03:54.421Z,97631.38
2023-03-14T00:06:21.183Z,97641.72
2023-03-14T00:08:48.002Z,97647.75
2023-03-14T00:11:17.451Z,97650.47
2023-03-14T00:13:44.166Z,97654.97
2023-03-14T00:16:13.401Z,97662.38
2023-03-14T00:18:40.761Z,97667.72
2023-03-14T00:21:09.626Z,97671.41
2023-03-14T00:23:38.590Z,97673.56
2023-03-14T00:26:08.957Z,97687.28
2023-03-14T00:28:36.068Z,97675.97
2023-03-14T00:31:07.774Z,97688.38
2023-03-14T00:33:34.963Z,97693.13
2023-03-14T00:36:06.363Z,97699.47
2023-03-14T00:38:34.085Z,97697.41
2023-03-14T00:41:03.706Z,97699.81
2023-03-14T00:43:30.423Z,97711.41
2023-03-14T00:45:58.114Z,97721.75
2023-03-14T00:48:24.698Z,97729.38
2023-03-14T00:50:51.231Z,97738.06
2023-03-14T00:53:18.246Z,97737.53
2023-03-14T00:55:45.457Z,97748.09
2023-03-14T00:58:13.697Z,97753.66
2023-03-14T01:00:40.721Z,97753.72
2023-03-14T01:03:08.089Z,97764.81
2023-03-14T01:05:36.123Z,97761.09
2023-03-14T01:08:03.433Z,97774.56
2023-03-14T01:10:30.330Z,97774.34
2023-03-14T01:12:57.022Z,97792.78
2023-03-14T01:15:23.580Z,97797.75
2023-03-14T01:17:50.419Z,97805.72
2023-03-14T01:20:18.461Z,97803.38
2023-03-14T01:22:45.546Z,97810.47
2023-03-14T01:25:15.394Z,97820.50
2023-03-14T01:27:42.248Z,97813.69
2023-03-14T01:30:30.467Z,97818.72
2023-03-14T01:32:57.028Z,97830.03
2023-03-14T01:35:23.536Z,97830.59
2023-03-14T01:37:50.041Z,97838.00
2023-03-14T01:40:18.076Z,97849.63
2023-03-14T01:42:56.018Z,97854.88
2023-03-14T01:46:00.440Z,97858.84
2023-03-14T01:48:32.278Z,97859.44
2023-03-14T01:51:02.085Z,97864.47
2023-03-14T01:53:29.729Z,97882.41
2023-03-14T01:55:57.962Z,97879.78
2023-03-14T01:58:28.286Z,97888.75
2023-03-14T02:00:58.368Z,97896.16
2023-03-14T02:03:26.529Z,97906.50
2023-03-14T02:05:58.913Z,97912.78
2023-03-14T02:08:25.762Z,97912.06
2023-03-14T02:10:52.439Z,97920.72
2023-03-14T02:13:21.204Z,97926.00
2023-03-14T02:15:48.800Z,97936.28
2023-03-14T02:18:17.205Z,97945.00
2023-03-14T02:21:09.499Z,97947.91
2023-03-14T02:24:08.415Z,97951.56
2023-03-14T02:27:04.181Z,97967.13
2023-03-14T02:29:32.877Z,97964.53
2023-03-14T02:31:59.450Z,97973.19
2023-03-14T02:34:27.076Z,97969.53
2023-03-14T02:36:54.165Z,97975.34
2023-03-14T02:39:38.177Z,97979.31
2023-03-14T02:42:04.895Z,97994.84
2023-03-14T02:44:31.446Z,97989.03
2023-03-14T02:46:58.289Z,97996.72
2023-03-14T02:49:28.242Z,98012.25
2023-03-14T02:51:54.760Z,98021.44
2023-03-14T02:54:21.765Z,98030.91
2023-03-14T02:56:48.347Z,98049.59
2023-03-14T02:59:14.864Z,98053.81
2023-03-14T03:01:41.483Z,98071.94
2023-03-14T03:04:08.069Z,98080.34
2023-03-14T03:06:34.575Z,98079.31
2023-03-14T03:09:01.498Z,98093.53
2023-03-14T03:11:28.136Z,98106.94
2023-03-14T03:13:54.676Z,98112.44
2023-03-14T03:16:21.234Z,98117.72
2023-03-14T03:18:47.824Z,98131.94
2023-03-14T03:21:14.336Z,98131.66
2023-03-14T03:23:41.013Z,98139.81
2023-03-14T03:26:07.546Z,98142.97
2023-03-14T03:28:34.106Z,98144.25
2023-03-14T03:31:08.165Z,98156.09
2023-03-14T03:33:34.793Z,98160.28
2023-03-14T03:36:01.345Z,98165.56
2023-03-14T03:38:27.935Z,98180.28
2023-03-14T03:40:54.417Z,98183.69
2023-03-14T03:43:20.972Z,98187.88
2023-03-14T03:45:47.630Z,98194.72
2023-03-14T03:48:14.132Z,98195.22
2023-03-14T03:50:46.120Z,98200.47
2023-03-14T03:53:15.571Z,98212.31
2023-03-14T03:55:43.434Z,98222.56
2023-03-14T03:58:10.059Z,98230.44
2023-03-14T04:00:36.623Z,98239.13
2023-03-14T04:03:03.211Z,98241.97
2023-03-14T04:05:29.825Z,98249.09
2023-03-14T04:07:56.393Z,98253.81
2023-03-14T04:10:23.128Z,98267.47
2023-03-14T04:12:49.635Z,98281.13
2023-03-14T04:15:16.192Z,98282.97
2023-03-14T04:17:42.663Z,98306.34
2023-03-14T04:20:11.757Z,98307.66
2023-03-14T04:22:39.363Z,98312.66
2023-03-14T04:25:12.225Z,98327.63
2023-03-14T04:27:38.753Z,98338.13
2023-03-14T04:30:05.729Z,98348.38
2023-03-14T04:32:32.325Z,98357.03
2023-03-14T04:34:58.806Z,98362.78
2023-03-14T04:37:25.632Z,98377.19
2023-03-14T04:39:52.145Z,98391.38
2023-03-14T04:42:18.635Z,98395.31
2023-03-14T04:44:45.653Z,98402.41
2023-03-14T04:47:12.140Z,98414.25
2023-03-14T04:49:38.756Z,98417.38
2023-03-14T04:52:05.345Z,98427.34
2023-03-14T04:54:32.026Z,98434.69
2023-03-14T04:56:58.512Z,98446.75
2023-03-14T04:59:25.099Z,98450.91
2023-03-14T05:01:51.736Z,98455.94
2023-03-14T05:04:18.304Z,98466.16
2023-03-14T05:06:47.203Z,98475.56
2023-03-14T05:09:13.701Z,98472.38
2023-03-14T05:11:40.203Z,98485.25
2023-03-14T05:14:06.735Z,98494.44
2023-03-14T05:16:33.482Z,98494.69
2023-03-14T05:19:00.663Z,98501.25
2023-03-14T05:21:27.169Z,98506.72
2023-03-14T05:23:53.709Z,98512.22
2023-03-14T05:26:20.266Z,98520.66
2023-03-14T05:28:46.997Z,98530.88
2023-03-14T05:31:13.679Z,98532.94
2023-03-14T05:33:40.917Z,98545.78
2023-03-14T05:36:08.062Z,98549.94
2023-03-14T05:38:34.634Z,98562.81
2023-03-14T05:41:01.126Z,98580.16
2023-03-14T05:43:27.655Z,98588.25
2023-03-14T05:45:54.404Z,98589.78
2023-03-14T05:48:22.608Z,98601.91
2023-03-14T05:50:49.537Z,98604.75
2023-03-14T05:53:16.055Z,98612.41
2023-03-14T05:55:42.610Z,98618.13
2023-03-14T05:58:09.122Z,98632.53
2023-03-14T06:00:35.631Z,98639.88
2023-03-14T06:03:02.159Z,98646.97
2023-03-14T06:05:28.748Z,98656.91
2023-03-14T06:07:55.273Z,98664.53
2023-03-14T06:10:21.818Z,98668.97
2023-03-14T06:12:48.334Z,98678.94
2023-03-14T06:15:14.821Z,98690.72
2023-03-14T06:17:41.303Z,98692.06
2023-03-14T06:20:09.200Z,98701.47
2023-03-14T06:22:35.754Z,98706.16
2023-03-14T06:25:02.351Z,98708.72
2023-03-14T06:27:28.910Z,98723.66
2023-03-14T06:29:58.360Z,98724.94
2023-03-14T06:32:25.682Z,98728.84
2023-03-14T06:34:52.269Z,98723.03
2023-03-14T06:37:20.641Z,98726.22
2023-03-14T06:39:47.717Z,98733.53
2023-03-14T06:42:14.697Z,98741.66
2023-03-14T06:44:41.255Z,98761.03
2023-03-14T06:47:07.747Z,98775.47
2023-03-14T06:49:34.316Z,98778.56
2023-03-14T06:52:00.805Z,98786.09
2023-03-14T06:54:27.575Z,98796.28
2023-03-14T06:56:54.327Z,98813.84
2023-03-14T06:59:20.890Z,98821.41
2023-03-14T07:01:49.118Z,98825.31
2023-03-14T07:04:15.719Z,98833.19
2023-03-14T07:06:45.279Z,98843.81
2023-03-14T07:09:13.326Z,98852.41
2023-03-14T07:11:40.040Z,98867.25
2023-03-14T07:14:06.837Z,98873.19
2023-03-14T07:16:34.078Z,98894.63
2023-03-14T07:19:02.587Z,98909.81
2023-03-14T07:21:29.287Z,98911.66
2023-03-14T07:23:56.030Z,98923.84
2023-03-14T07:26:22.623Z,98923.84
2023-03-14T07:28:49.124Z,98926.94
2023-03-14T07:31:15.644Z,98931.72
2023-03-14T07:33:42.232Z,98936.97
2023-03-14T07:36:09.335Z,98948.72
2023-03-14T07:38:35.953Z,98956.81
2023-03-14T07:41:04.446Z,98961.00
2023-03-14T07:43:30.968Z,98969.91
2023-03-14T07:45:59.962Z,98970.72
2023-03-14T07:48:28.041Z,98967.06
2023-03-14T07:50:55.778Z,98962.84
2023-03-14T07:53:23.078Z,98967.63
2023-03-14T07:55:52.689Z,98975.75
2023-03-14T07:58:20.233Z,98988.38
2023-03-14T08:00:46.720Z,98996.25
2023-03-14T08:03:13.310Z,98997.59
2023-03-14T08:05:40.861Z,99010.59
2023-03-14T08:08:07.438Z,99008.50
2023-03-14T08:10:34.253Z,99012.84
2023-03-14T08:13:01.798Z,99027.88
2023-03-14T08:15:30.398Z,99037.66
2023-03-14T08:17:57.074Z,99048.28
2023-03-14T08:20:26.561Z,99048.38
2023-03-14T08:22:53.900Z,99065.78
2023-03-14T08:25:20.510Z,99065.44
2023-03-14T08:27:47.135Z,99070.56
2023-03-14T08:30:16.097Z,99076.47
2023-03-14T08:32:42.914Z,99081.00
2023-03-14T08:35:10.717Z,99098.47
2023-03-14T08:37:37.720Z,99097.75
2023-03-14T08:40:09.787Z,99103.09
2023-03-14T08:42:37.690Z,99113.22
2023-03-14T08:45:04.889Z,99123.03
2023-03-14T08:47:31.529Z,99133.16
2023-03-14T08:49:58.080Z,99151.16
2023-03-14T08:52:24.802Z,99155.03
2023-03-14T08:54:51.399Z,99155.19
2023-03-14T08:57:17.939Z,99158.00
2023-03-14T08:59:44.535Z,99163.19
2023-03-14T09:02:14.156Z,99171.81
2023-03-14T09:04:40.825Z,99184.69
2023-03-14T09:07:07.447Z,99189.88
2023-03-14T09:09:33.992Z,99193.22
2023-03-14T09:12:00.530Z,99198.19
2023-03-14T09:14:27.228Z,99198.31
2023-03-14T09:16:53.913Z,99200.84
2023-03-14T09:19:20.540Z,99218.16
2023-03-14T09:21:47.033Z,99210.97
2023-03-14T09:24:13.705Z,99207.97
2023-03-14T09:26:40.293Z,99217.13
2023-03-14T09:29:06.748Z,99210.22
2023-03-14T09:31:33.392Z,99221.47
2023-03-14T09:33:59.987Z,99227.72
2023-03-14T09:36:26.489Z,99235.81
2023-03-14T09:38:53.070Z,99238.34
2023-03-14T09:41:27.153Z,99246.16
2023-03-14T09:44:20.285Z,99245.78
2023-03-14T09:46:52.492Z,99250.91
2023-03-14T09:49:18.939Z,99263.66
2023-03-14T09:51:48.857Z,99267.94
2023-03-14T09:54:35.521Z,99258.25
2023-03-14T09:57:03.672Z,99268.88
2023-03-14T09:59:31.015Z,99276.91
2023-03-14T10:02:02.420Z,99268.50
2023-03-14T10:04:31.125Z,99282.84
2023-03-14T10:06:57.724Z,99292.13
2023-03-14T10:09:26.434Z,99303.56
2023-03-14T10:11:58.285Z,99312.88
2023-03-14T10:14:34.110Z,99312.13
2023-03-14T10:17:11.051Z,99311.91
2023-03-14T10:19:38.953Z,99318.56
2023-03-14T10:22:07.002Z,99313.03
2023-03-14T10:24:36.033Z,99317.03
2023-03-14T10:27:06.768Z,99311.25
2023-03-14T10:29:35.239Z,99303.38
2023-03-14T10:32:08.872Z,99317.47
2023-03-14T10:34:38.519Z,99323.56
2023-03-14T10:37:18.430Z,99314.63
2023-03-14T10:40:06.552Z,99314.41
2023-03-14T10:42:35.877Z,99317.88
2023-03-14T10:45:06.626Z,99321.91
2023-03-14T10:47:33.630Z,99322.22
2023-03-14T10:50:30.717Z,99328.84
2023-03-14T10:53:03.139Z,99330.72
2023-03-14T10:55:41.495Z,99336.03
2023-03-14T10:58:31.861Z,99342.16
2023-03-14T11:01:10.816Z,99338.19
2023-03-14T11:03:40.829Z,99349.56
2023-03-14T11:06:12.202Z,99355.94
2023-03-14T11:08:52.959Z,99357.25
2023-03-14T11:11:24.007Z,99353.22
2023-03-14T11:14:35.453Z,99370.75
2023-03-14T11:17:21.970Z,99359.84
2023-03-14T11:19:58.747Z,99360.91
2023-03-14T11:22:42.005Z,99368.63
2023-03-14T11:25:15.016Z,99382.41
2023-03-14T11:28:02.691Z,99400.72
2023-03-14T11:30:31.896Z,99415.59
2023-03-14T11:33:14.155Z,99416.66
2023-03-14T11:35:56.635Z,99417.72
2023-03-14T11:38:53.165Z,99422.22
2023-03-14T11:41:25.910Z,99438.13
2023-03-14T11:43:58.448Z,99450.59
2023-03-14T11:46:46.743Z,99447.09
2023-03-14T11:49:25.128Z,99454.75
2023-03-14T11:51:56.704Z,99469.56
2023-03-14T11:54:50.742Z,99481.69
2023-03-14T11:57:19.090Z,99497.75
2023-03-14T12:00:22.884Z,99498.09
2023-03-14T12:02:57.495Z,99507.47
2023-03-14T12:05:51.468Z,99515.00
2023-03-14T12:08:34.341Z,99508.00
2023-03-14T12:11:14.691Z,99503.59
2023-03-14T12:13:46.473Z,99505.34
2023-03-14T12:16:21.940Z,99499.91
2023-03-14T12:18:48.577Z,99501.47
2023-03-14T12:21:15.414Z,99497.09
2023-03-14T12:23:47.887Z,99507.28
2023-03-14T12:26:23.727Z,99511.16
2023-03-14T12:29:10.566Z,99502.59
2023-03-14T12:31:39.763Z,99499.06
2023-03-14T12:34:12.595Z,99497.34
2023-03-14T12:36:51.137Z,99505.16
2023-03-14T12:39:41.839Z,99507.66
2023-03-14T12:42:44.030Z,99509.38
2023-03-14T12:45:26.384Z,99511.28
2023-03-14T12:47:56.211Z,99513.19
2023-03-14T12:50:28.085Z,99516.16
2023-03-14T12:53:19.607Z,99522.00
2023-03-14T12:56:08.952Z,99537.44
2023-03-14T12:58:40.565Z,99545.16
2023-03-14T13:01:16.777Z,99556.28
2023-03-14T13:03:47.557Z,99554.94
2023-03-14T13:06:36.800Z,99551.72
2023-03-14T13:09:35.352Z,99548.25
2023-03-14T13:12:11.877Z,99560.69
2023-03-14T13:14:43.666Z,99538.41
2023-03-14T13:17:33.554Z,99527.00
2023-03-14T13:20:06.004Z,99515.91
2023-03-14T13:22:38.053Z,99516.44
2023-03-14T13:25:07.404Z,99519.41
2023-03-14T13:27:36.074Z,99530.25
2023-03-14T13:30:24.036Z,99532.41
2023-03-14T13:32:52.674Z,99550.41
2023-03-14T13:35:24.360Z,99553.06
2023-03-14T13:38:17.606Z,99548.25
2023-03-14T13:40:46.316Z,99527.00
2023-03-14T13:43:17.830Z,99506.03
2023-03-14T13:45:57.632Z,99498.84
2023-03-14T13:48:28.924Z,99506.78
2023-03-14T13:51:02.754Z,99513.38
2023-03-14T13:53:30.709Z,99525.06
2023-03-14T13:55:57.433Z,99517.09
2023-03-14T13:58:30.068Z,99526.66
2023-03-14T14:01:07.675Z,99513.66
2023-03-14T14:03:40.112Z,99526.41
2023-03-14T14:06:17.643Z,99524.59
2023-03-14T14:08:44.938Z,99524.31
2023-03-14T14:11:25.964Z,99532.84
2023-03-14T14:13:55.897Z,99547.16
2023-03-14T14:16:28.386Z,99541.84
2023-03-14T14:18:57.244Z,99546.63
2023-03-14T14:21:25.023Z,99550.59
2023-03-14T14:23:51.783Z,99535.47
2023-03-14T14:26:20.617Z,99552.41
2023-03-14T14:28:50.359Z,99555.03
2023-03-14T14:31:23.072Z,99559.25
2023-03-14T14:33:59.786Z,99563.44
2023-03-14T14:36:33.882Z,99570.56
2023-03-14T14:39:10.097Z,99571.31
2023-03-14T14:41:42.479Z,99563.06
2023-03-14T14:44:13.579Z,99563.00
2023-03-14T14:46:40.200Z,99570.09
2023-03-14T14:49:20.158Z,99572.69
2023-03-14T14:51:51.596Z,99583.47
2023-03-14T14:54:33.493Z,99596.34
2023-03-14T14:57:05.643Z,99590.69
2023-03-14T14:59:33.889Z,99602.50
2023-03-14T15:02:02.968Z,99597.16
2023-03-14T15:04:32.818Z,99602.91
2023-03-14T15:06:59.662Z,99620.50
2023-03-14T15:09:26.228Z,99632.53
2023-03-14T15:11:52.824Z,99612.56
2023-03-14T15:14:19.339Z,99614.22
2023-03-14T15:16:45.892Z,99624.00
2023-03-14T15:19:25.936Z,99633.81
2023-03-14T15:21:55.536Z,99627.06
2023-03-14T15:24:22.915Z,99632.81
2023-03-14T15:26:49.537Z,99645.41
2023-03-14T15:29:16.123Z,99649.25
2023-03-14T15:31:44.902Z,99661.25
2023-03-14T15:34:12.326Z,99666.19
2023-03-14T15:36:39.712Z,99673.78
2023-03-14T15:39:07.418Z,99681.38
2023-03-14T15:41:34.445Z,99686.84
2023-03-14T15:44:00.978Z,99691.94
2023-03-14T15:46:29.841Z,99692.56
2023-03-14T15:48:57.473Z,99689.50
2023-03-14T15:51:23.951Z,99683.34
2023-03-14T15:53:50.688Z,99680.97
2023-03-14T15:56:19.914Z,99690.69
2023-03-14T15:58:49.736Z,99693.34
2023-03-14T16:01:17.130Z,99693.13
2023-03-14T16:03:46.017Z,99695.41
2023-03-14T16:06:13.893Z,99688.88
2023-03-14T16:08:40.606Z,99681.19
2023-03-14T16:11:09.551Z,99687.19
2023-03-14T16:13:36.070Z,99686.59
2023-03-14T16:16:05.112Z,99689.97
2023-03-14T16:18:34.356Z,99692.03
2023-03-14T16:21:20.053Z,99695.72
2023-03-14T16:23:47.317Z,99693.56
2023-03-14T16:26:19.113Z,99691.72
2023-03-14T16:28:47.337Z,99682.53
2023-03-14T16:31:17.453Z,99675.41
2023-03-14T16:33:44.704Z,99681.50
2023-03-14T16:36:13.582Z,99687.56
2023-03-14T16:38:41.951Z,99697.31
2023-03-14T16:41:17.003Z,99695.94
2023-03-14T16:43:43.954Z,99694.00
2023-03-14T16:46:17.448Z,99692.63
2023-03-14T16:48:45.064Z,99699.91
2023-03-14T16:51:12.048Z,99690.84
2023-03-14T16:53:38.581Z,99700.25
2023-03-14T16:56:05.430Z,99697.53
2023-03-14T16:58:32.031Z,99697.66
2023-03-14T17:00:59.147Z,99700.78
2023-03-14T17:03:27.945Z,99705.63
2023-03-14T17:05:54.601Z,99713.06
2023-03-14T17:08:21.468Z,99706.56
2023-03-14T17:10:48.096Z,99711.06
2023-03-14T17:13:14.708Z,99727.56
2023-03-14T17:15:46.684Z,99726.63
2023-03-14T17:18:13.271Z,99731.69
2023-03-14T17:20:41.162Z,99742.56
2023-03-14T17:23:08.012Z,99754.00
2023-03-14T17:25:36.395Z,99763.03
2023-03-14T17:28:03.071Z,99766.22
2023-03-14T17:30:29.588Z,99784.50
2023-03-14T17:32:57.528Z,99780.59
2023-03-14T17:35:25.168Z,99792.03
2023-03-14T17:37:51.704Z,99794.53
2023-03-14T17:40:18.634Z,99803.31
2023-03-14T17:42:45.204Z,99798.94
2023-03-14T17:45:11.916Z,99793.56
2023-03-14T17:47:38.441Z,99800.84
2023-03-14T17:50:05.489Z,99796.03
2023-03-14T17:52:33.767Z,99797.03
2023-03-14T17:55:00.779Z,99795.53
2023-03-14T17:57:28.186Z,99806.72
2023-03-14T17:59:54.978Z,99805.19
2023-03-14T18:02:22.976Z,99804.25
2023-03-14T18:04:52.244Z,99817.47
2023-03-14T18:07:20.645Z,99827.84
2023-03-14T18:09:47.556Z,99832.50
2023-03-14T18:12:14.146Z,99835.00
2023-03-14T18:14:44.294Z,99848.81
2023-03-14T18:17:15.344Z,99853.63
2023-03-14T18:19:42.308Z,99851.19
2023-03-14T18:22:09.456Z,99854.66
2023-03-14T18:24:36.053Z,99860.72
2023-03-14T18:27:02.622Z,99863.13
2023-03-14T18:29:29.175Z,99861.50
2023-03-14T18:31:58.221Z,99861.66
2023-03-14T18:34:25.981Z,99869.41
2023-03-14T18:36:52.571Z,99873.38
2023-03-14T18:39:19.154Z,99881.75
2023-03-14T18:41:45.694Z,99888.59
2023-03-14T18:44:12.269Z,99889.16
2023-03-14T18:46:38.893Z,99899.47
2023-03-14T18:49:05.489Z,99905.75
2023-03-14T18:51:33.408Z,99901.13
2023-03-14T18:54:10.322Z,99911.88
2023-03-14T18:56:39.121Z,99910.47
2023-03-14T18:59:05.877Z,99917.34
2023-03-14T19:01:34.203Z,99918.16
2023-03-14T19:04:01.929Z,99920.59
2023-03-14T19:06:31.958Z,99927.50
2023-03-14T19:08:59.257Z,99932.56
2023-03-14T19:11:26.835Z,99934.63
2023-03-14T19:13:54.958Z,99930.03
2023-03-14T19:16:27.873Z,99939.19
2023-03-14T19:18:55.584Z,99934.41
2023-03-14T19:21:33.747Z,99949.56
2023-03-14T19:24:00.985Z,99953.22
2023-03-14T19:26:29.989Z,99964.59
2023-03-14T19:28:56.701Z,99962.78
2023-03-14T19:31:23.386Z,99965.19
2023-03-14T19:33:49.996Z,99959.34
2023-03-14T19:36:28.953Z,99951.88
2023-03-14T19:38:55.536Z,99950.72
2023-03-14T19:41:24.180Z,99944.69
2023-03-14T19:43:52.565Z,99956.25
2023-03-14T19:46:19.493Z,99962.53
2023-03-14T19:48:46.222Z,99960.41
2023-03-14T19:51:13.765Z,99960.81
2023-03-14T19:53:41.889Z,99958.84
2023-03-14T19:56:09.458Z,99965.13
2023-03-14T19:58:38.407Z,99960.94
2023-03-14T20:01:06.124Z,99966.59
2023-03-14T20:03:37.091Z,99976.13
2023-03-14T20:06:11.743Z,99982.41
2023-03-14T20:08:39.300Z,99983.03
2023-03-14T20:11:07.230Z,99988.69
2023-03-14T20:13:33.959Z,99990.72
2023-03-14T20:16:03.947Z,99996.59
2023-03-14T20:18:31.344Z,100005.69
2023-03-14T20:20:58.076Z,99996.03
2023-03-14T20:23:24.626Z,100005.50
2023-03-14T20:25:55.497Z,100006.91
2023-03-14T20:28:22.202Z,100009.75
2023-03-14T20:30:49.095Z,100018.41
2023-03-14T20:33:18.645Z,100014.19
2023-03-14T20:35:56.049Z,100020.84
2023-03-14T20:38:24.221Z,100028.94
2023-03-14T20:40:50.744Z,100028.13
2023-03-14T20:43:17.280Z,100034.78
2023-03-14T20:45:43.814Z,100034.38
2023-03-14T20:48:10.395Z,100034.56
2023-03-14T20:50:36.937Z,100047.66
2023-03-14T20:53:03.645Z,100038.78
2023-03-14T20:55:30.268Z,100044.03
2023-03-14T20:57:56.844Z,100053.53
2023-03-14T21:00:23.508Z,100058.34
2023-03-14T21:02:50.072Z,100064.63
2023-03-14T21:05:17.251Z,100065.59
2023-03-14T21:07:45.306Z,100068.63
2023-03-14T21:10:12.942Z,100068.41
2023-03-14T21:12:39.832Z,100074.28
2023-03-14T21:15:07.796Z,100071.84
2023-03-14T21:17:34.744Z,100070.66
2023-03-14T21:20:01.327Z,100063.38
2023-03-14T21:22:29.485Z,100070.81
2023-03-14T21:24:56.546Z,100074.84
2023-03-14T21:27:23.222Z,100073.47
2023-03-14T21:29:49.763Z,100080.69
2023-03-14T21:32:16.338Z,100076.66
2023-03-14T21:34:42.912Z,100076.66
2023-03-14T21:37:09.433Z,100086.09
2023-03-14T21:39:35.928Z,100082.88
2023-03-14T21:42:02.667Z,100087.50
2023-03-14T21:44:29.170Z,100084.47
2023-03-14T21:46:55.872Z,100083.69
2023-03-14T21:49:22.469Z,100088.88
2023-03-14T21:51:48.949Z,100084.41
2023-03-14T21:54:16.940Z,100071.56
2023-03-14T21:56:44.264Z,100082.41
2023-03-14T21:59:11.754Z,100095.09
2023-03-14T22:01:38.323Z,100100.72
2023-03-14T22:04:06.165Z,100103.72
2023-03-14T22:06:35.070Z,100107.31
2023-03-14T22:09:01.784Z,100113.53
2023-03-14T22:11:28.893Z,100112.69
2023-03-14T22:13:55.396Z,100106.84
2023-03-14T22:16:22.036Z,100101.19
2023-03-14T22:18:48.701Z,100103.38
2023-03-14T22:21:15.185Z,100104.56
2023-03-14T22:23:41.807Z,100102.53
2023-03-14T22:26:08.355Z,100119.97
2023-03-14T22:28:34.929Z,100126.16
2023-03-14T22:31:03.443Z,100127.91
2023-03-14T22:33:31.443Z,100124.84
2023-03-14T22:35:59.555Z,100130.88
2023-03-14T22:38:26.108Z,100135.09
2023-03-14T22:40:53.027Z,100135.81
2023-03-14T22:43:19.628Z,100133.66
2023-03-14T22:45:46.242Z,100145.66
2023-03-14T22:48:13.076Z,100145.03
2023-03-14T22:50:40.426Z,100148.22
2023-03-14T22:53:07.120Z,100152.00
2023-03-14T22:55:33.935Z,100154.38
2023-03-14T22:58:00.763Z,100154.56
2023-03-14T23:00:28.047Z,100158.97
2023-03-14T23:02:54.835Z,100163.97
2023-03-14T23:05:21.788Z,100170.38
2023-03-14T23:07:48.282Z,100176.78
2023-03-14T23:10:14.820Z,100178.75
2023-03-14T23:12:41.362Z,100183.94
2023-03-14T23:15:08.521Z,100180.91
2023-03-14T23:17:35.543Z,100187.84
2023-03-14T23:20:02.274Z,100187.41
2023-03-14T23:22:32.840Z,100197.22
2023-03-14T23:25:01.175Z,100206.59
2023-03-14T23:27:28.176Z,100206.97
2023-03-14T23:29:54.659Z,100215.00
2023-03-14T23:32:21.426Z,100214.56
2023-03-14T23:34:48.403Z,100221.13
2023-03-14T23:37:15.036Z,100226.72
2023-03-14T23:39:44.602Z,100226.00
2023-03-14T23:42:11.765Z,100242.47
2023-03-14T23:44:38.396Z,100233.75
2023-03-14T23:47:05.245Z,100241.31
2023-03-14T23:49:32.128Z,100244.13
2023-03-14T23:51:58.650Z,100248.91
2023-03-14T23:54:25.394Z,100253.13
2023-03-14T23:56:51.970Z,100252.13
2023-03-14T23:59:18.520Z,100253.47
